Emslake — V2FL4 — position and weather

sailwx.info

Track history (hours):
 
Tides and Currents Weather Stations Pressure Air Temp Water Temp Dewpoint Dewpoint Depression Visibility Wind Speed Wind Dir Waves Ship Positions

Emslake

Last reported at 2014-Oct-01 09:33 UTC. Time now 2014-Oct-01 10:12 UTC.
Position N 55°29' E 014°58'.

Length 100 m; draft 5.1 m.

Type: Ship (hazmat cat B). MMSI: 305712000.

Date/timePositionNaut miles runAvg speedWind from/ knotsBaromVisibWave heightAir tempDewpointWater temp
2014-Oct-01 09:33N 55°29' E 014°58'1010.3
2014-Oct-01 08:33N 55°24' E 014°42'1010.1
2014-Oct-01 07:33N 55°16' E 014°30'1010.3
2014-Oct-01 06:33N 55°08' E 014°18'1010.2
2014-Oct-01 05:34N 55°01' E 014°06'1010.2
2014-Oct-01 04:34N 54°57' E 013°50'1010.4
2014-Oct-01 03:33N 54°53' E 013°33'10 9.8
2014-Oct-01 02:33N 54°49' E 013°18'10 9.7
2014-Oct-01 01:33N 54°45' E 013°02'2010.0
2014-Sep-30 23:33N 54°36' E 012°31'1010.1
2014-Sep-30 22:33N 54°31' E 012°17'10 9.6
2014-Sep-30 21:33N 54°25' E 012°04'10 9.9
2014-Sep-30 20:34N 54°25' E 011°47'1110.8
2014-Sep-30 19:34N 54°29' E 011°30'1010.0
2014-Sep-30 18:33N 54°34' E 011°14'10 9.5
2014-Sep-30 17:33N 54°35' E 010°58'1010.5
2014-Sep-30 16:33N 54°34' E 010°40'1010.3
2014-Sep-30 15:33N 54°30' E 010°23'10 9.8
2014-Sep-30 14:33N 54°23' E 010°12'3 2.9
2014-Sep-30 13:33N 54°22' E 010°07'6 6.0
2014-Sep-30 12:33N 54°20' E 009°57'5 4.9
2014-Sep-30 11:33N 54°22' E 009°49'8 7.7
2014-Sep-30 10:33N 54°17' E 009°39'5 5.1
2014-Sep-30 09:33N 54°13' E 009°35'16 7.8
2014-Sep-30 07:32N 54°01' E 009°18'7 7.1
2014-Sep-30 06:33N 53°55' E 009°11'3 3.4
2014-Sep-30 05:33N 53°53' E 009°06'9 9.4
2014-Sep-30 04:34N 53°50' E 008°51'1010.5
2014-Sep-30 03:34N 53°57' E 008°37'1111.1
2014-Sep-30 02:34N 53°59' E 008°19'1111.1
2014-Sep-30 01:33N 53°58' E 008°00'5911.6
2014-Sep-29 20:26N 53°44' E 006°22'910.8
2014-Sep-29 19:34N 53°41' E 006°07'1010.3
2014-Sep-29 18:34N 53°38' E 005°51'10 9.7
2014-Sep-29 17:34N 53°35' E 005°35'9 9.4
2014-Sep-29 16:34N 53°32' E 005°20'9 9.2
2014-Sep-29 15:33N 53°29' E 005°06'9 9.2
2014-Sep-29 14:34N 53°25' E 004°51'9 9.1
2014-Sep-29 13:33N 53°20' E 004°40'30 9.7
2014-Sep-29 10:31N 52°54' E 004°16'10 9.9
2014-Sep-29 09:28N 52°45' E 004°08'1010.6
2014-Sep-29 08:33N 52°38' E 003°57'1111.2
2014-Sep-29 07:33N 52°30' E 003°43'1311.6
2014-Sep-29 06:27N 52°22' E 003°27'1011.2
2014-Sep-29 05:33N 52°18' E 003°12'1411.5
2014-Sep-29 04:18N 52°13' E 002°50'1011.8
2014-Sep-29 03:28N 52°06' E 002°39'1111.6
2014-Sep-29 02:33N 51°58' E 002°28'1110.8
2014-Sep-29 01:34N 51°50' E 002°16'10 9.9
2014-Sep-29 00:34N 51°42' E 002°06'9 8.7
2014-Sep-28 23:33N 51°36' E 001°56'9 8.6
2014-Sep-28 22:33N 51°31' E 001°45'9 8.5
2014-Sep-28 21:33N 51°28' E 001°32'10 9.5
2014-Sep-28 20:33N 51°29' E 001°17'1111.1
2014-Sep-28 19:34N 51°29' E 000°59'1212.1
2014-Sep-28 18:34N 51°30' E 000°40'1111.0
2014-Sep-28 17:34N 51°27' E 000°23'1 1.3
2014-Sep-28 16:33N 51°28' E 000°21'0 0.0
2014-Sep-28 15:33N 51°28' E 000°21'0 0.0
2014-Sep-28 14:33N 51°28' E 000°21'0 0.0
2014-Sep-28 13:34N 51°28' E 000°21'0 0.0
2014-Sep-28 12:33N 51°28' E 000°21'0 0.1
2014-Sep-28 11:34N 51°27' E 000°21'0 0.0
2014-Sep-28 10:33N 51°27' E 000°21'0 0.0
2014-Sep-28 09:33N 51°27' E 000°21'0 0.0
2014-Sep-28 08:33N 51°27' E 000°21'0 0.0
2014-Sep-28 07:33N 51°27' E 000°21'0 0.0
2014-Sep-28 06:33N 51°27' E 000°21'0 0.0
2014-Sep-28 05:34N 51°27' E 000°21'0 0.0
2014-Sep-28 04:34N 51°27' E 000°21'0 0.0
2014-Sep-28 03:33N 51°27' E 000°21'0 0.0
2014-Sep-28 02:34N 51°27' E 000°21'0 0.0
2014-Sep-28 01:33N 51°27' E 000°21'0 0.0
2014-Sep-28 00:34N 51°27' E 000°21'0 0.0
2014-Sep-27 23:33N 51°27' E 000°21'0 0.0
2014-Sep-27 22:33N 51°27' E 000°21'0 0.0
2014-Sep-27 21:34N 51°27' E 000°21'0 0.0
2014-Sep-27 20:34N 51°27' E 000°21'0 0.0
2014-Sep-27 19:33N 51°27' E 000°21'0 0.0
2014-Sep-27 18:33N 51°27' E 000°21'0 0.0
2014-Sep-27 17:33N 51°27' E 000°21'0 0.0
2014-Sep-27 16:33N 51°27' E 000°21'0 0.0
2014-Sep-27 15:33N 51°27' E 000°21'0 0.0
2014-Sep-27 14:34N 51°27' E 000°21'0 0.0
2014-Sep-27 13:33N 51°27' E 000°21'0 0.0
2014-Sep-27 12:34N 51°27' E 000°21'0 0.0
2014-Sep-27 11:34N 51°27' E 000°21'0 0.0
2014-Sep-27 10:34N 51°27' E 000°21'0 0.0
2014-Sep-27 09:34N 51°27' E 000°21'0 0.0
2014-Sep-27 08:33N 51°27' E 000°21'0 0.0
2014-Sep-27 07:34N 51°27' E 000°21'1 0.6
2014-Sep-27 06:34N 51°28' E 000°20'1 0.7
2014-Sep-27 05:34N 51°27' E 000°21'1 0.7
2014-Sep-27 04:34N 51°27' E 000°22'8 7.7
2014-Sep-27 03:33N 51°30' E 000°33'1010.2
2014-Sep-27 02:33N 51°30' E 000°49'1111.5
2014-Sep-27 01:34N 51°30' E 001°08'1312.6
2014-Sep-27 00:34N 51°28' E 001°28'6 6.3
2014-Sep-26 23:33N 51°31' E 001°36'8 7.8
2014-Sep-26 22:33N 51°37' E 001°44'10 9.7
2014-Sep-26 21:33N 51°47' E 001°44'1313.3
2014-Sep-26 20:34N 52°00' E 001°47'1413.6
2014-Sep-26 19:34N 52°13' E 001°53'1212.2
2014-Sep-26 18:34N 52°25' E 001°57'1110.9
2014-Sep-26 17:34N 52°36' E 002°02'1010.1
2014-Sep-26 16:33N 52°46' E 002°05'9 9.3
2014-Sep-26 15:33N 52°54' E 001°58'9 9.4
2014-Sep-26 14:34N 52°60' E 001°46'10 9.7
2014-Sep-26 13:33N 53°06' E 001°33'1010.1
2014-Sep-26 12:33N 53°12' E 001°21'3210.5
2014-Sep-26 09:33N 53°26' E 000°33'1111.3
2014-Sep-26 08:34N 53°31' E 000°16'1211.6
2014-Sep-26 07:33N 53°36' W 000°02'1010.4
2014-Sep-26 06:33N 53°43' W 000°15'4 3.9
2014-Sep-26 05:31N 53°44' W 000°21'0 0.0
2014-Sep-26 04:34N 53°44' W 000°21'0 0.0
2014-Sep-26 03:34N 53°44' W 000°21'0 0.0
2014-Sep-26 02:34N 53°44' W 000°21'0 0.0
2014-Sep-26 01:34N 53°44' W 000°21'0 0.0
2014-Sep-26 00:34N 53°44' W 000°21'0 0.0
2014-Sep-25 23:33N 53°44' W 000°21'0 0.0
2014-Sep-25 22:33N 53°44' W 000°21'0 0.0
2014-Sep-25 21:33N 53°44' W 000°21'0 0.0
2014-Sep-25 20:33N 53°44' W 000°21'0 0.0
2014-Sep-25 19:33N 53°44' W 000°21'0 0.0
2014-Sep-25 18:33N 53°44' W 000°21'0 0.0
2014-Sep-25 17:33N 53°44' W 000°21'0 0.0
2014-Sep-25 16:33N 53°44' W 000°21'0 0.0
2014-Sep-25 15:33N 53°44' W 000°21'0 0.0
2014-Sep-25 14:33N 53°44' W 000°21'0 0.0
2014-Sep-25 13:34N 53°44' W 000°21'0 0.0
2014-Sep-25 12:33N 53°44' W 000°21'0 0.0
2014-Sep-25 11:33N 53°44' W 000°21'0 0.0
2014-Sep-25 10:33N 53°44' W 000°21'0 0.0
2014-Sep-25 09:33N 53°44' W 000°21'0 0.0
2014-Sep-25 08:34N 53°44' W 000°21'0 0.0
2014-Sep-25 07:34N 53°44' W 000°21'0 0.0
2014-Sep-25 06:33N 53°44' W 000°21'0 0.0
2014-Sep-25 05:33N 53°44' W 000°21'0 0.0
2014-Sep-25 04:33N 53°44' W 000°21'0 0.0
2014-Sep-25 03:33N 53°44' W 000°21'0 0.0
2014-Sep-25 02:34N 53°44' W 000°21'0 0.0
2014-Sep-25 01:34N 53°44' W 000°21'0 0.0
2014-Sep-25 00:34N 53°44' W 000°21'0 0.0
2014-Sep-24 23:33N 53°44' W 000°21'0 0.0
2014-Sep-24 22:33N 53°44' W 000°21'0 0.0
2014-Sep-24 21:33N 53°44' W 000°21'0 0.0
2014-Sep-24 20:33N 53°44' W 000°21'0 0.0
2014-Sep-24 19:31N 53°44' W 000°21'0 0.0
2014-Sep-24 18:31N 53°44' W 000°21'0 0.5
2014-Sep-24 17:33N 53°44' W 000°20'6 6.4
2014-Sep-24 16:34N 53°40' W 000°12'1211.8
2014-Sep-24 15:34N 53°34' E 000°05'10 9.6
2014-Sep-24 14:34N 53°33' E 000°21'3 3.3
2014-Sep-24 13:33N 53°35' E 000°26'0 0.1
2014-Sep-24 12:32N 53°35' E 000°26'0 0.0
2014-Sep-24 11:21N 53°35' E 000°26'6 7.4
2014-Sep-24 10:33N 53°36' E 000°36'148 8.5
2014-Sep-23 17:04N 54°04' E 004°43'4 8.3
2014-Sep-23 16:33N 54°04' E 004°50'8 8.0
2014-Sep-23 15:33N 54°05' E 005°03'8 8.1
2014-Sep-23 14:33N 54°06' E 005°17'8 8.5
2014-Sep-23 13:33N 54°08' E 005°31'8 8.4
2014-Sep-23 12:33N 54°09' E 005°45'9 8.9
2014-Sep-23 11:31N 54°10' E 006°01'35 8.7
2014-Sep-23 07:30N 54°12' E 007°01'8 8.3
2014-Sep-23 06:34N 54°12' E 007°14'8 8.3
2014-Sep-23 05:33N 54°12' E 007°28'8 8.0
2014-Sep-23 04:34N 54°09' E 007°41'8 8.3
2014-Sep-23 03:34N 54°05' E 007°53'8 8.2
2014-Sep-23 02:33N 54°01' E 008°06'10 9.9
2014-Sep-23 01:34N 53°60' E 008°22'1110.8
2014-Sep-23 00:34N 53°56' E 008°40'8 8.1
2014-Sep-22 23:33N 53°50' E 008°50'8 7.7
2014-Sep-22 22:33N 53°52' E 009°03'4 4.2
2014-Sep-22 21:33N 53°54' E 009°09'5 4.8
2014-Sep-22 20:30N 53°57' E 009°15'66 6.0
2014-Sep-22 09:22N 54°35' E 010°48'7 8.3
2014-Sep-22 08:33N 54°36' E 010°60'8 7.6
2014-Sep-22 07:34N 54°35' E 011°13'8 7.6
2014-Sep-22 06:34N 54°32' E 011°25'7 7.4
2014-Sep-22 05:34N 54°29' E 011°36'8 8.1
2014-Sep-22 04:34N 54°27' E 011°49'9 8.9
2014-Sep-22 03:34N 54°27' E 012°05'8 8.4
2014-Sep-22 02:33N 54°33' E 012°13'9 9.4
2014-Sep-22 01:33N 54°40' E 012°24'10 9.6
2014-Sep-22 00:33N 54°46' E 012°38'9 9.1
2014-Sep-21 23:33N 54°49' E 012°52'9 9.0
2014-Sep-21 22:33N 54°52' E 013°07'11 9.1
2014-Sep-21 21:22N 54°56' E 013°25'7 9.2
2014-Sep-21 20:33N 54°59' E 013°37'13 9.4
2014-Sep-21 19:09N 55°03' E 013°59'6 9.7
2014-Sep-21 18:30N 55°07' E 014°08'10 9.8
2014-Sep-21 17:30N 55°14' E 014°19'9 9.8
2014-Sep-21 16:33N 55°22' E 014°29'1010.0
2014-Sep-21 15:32N 55°28' E 014°42'1010.1
2014-Sep-21 14:33N 55°33' E 014°57'1310.0
2014-Sep-21 13:14N 55°40' E 015°17'1710.1
2014-Sep-21 11:33N 55°49' E 015°44'  
Track history (hours):
 
Tides and Currents Weather Stations Pressure Air Temp Water Temp Dewpoint Dewpoint Depression Visibility Wind Speed Wind Dir Waves Ship Positions

Emslake

Last reported at 2014-Oct-01 09:33 UTC. Time now 2014-Oct-01 10:12 UTC.
Position N 55°29' E 014°58'.

Length 100 m; draft 5.1 m.

Type: Ship (hazmat cat B). MMSI: 305712000.

Date/timePositionNaut miles runAvg speedWind from/ knotsBaromVisibWave heightAir tempDewpointWater temp
2014-Oct-01 09:33N 55°29' E 014°58'1010.3
2014-Oct-01 08:33N 55°24' E 014°42'1010.1
2014-Oct-01 07:33N 55°16' E 014°30'1010.3
2014-Oct-01 06:33N 55°08' E 014°18'1010.2
2014-Oct-01 05:34N 55°01' E 014°06'1010.2
2014-Oct-01 04:34N 54°57' E 013°50'1010.4
2014-Oct-01 03:33N 54°53' E 013°33'10 9.8
2014-Oct-01 02:33N 54°49' E 013°18'10 9.7
2014-Oct-01 01:33N 54°45' E 013°02'2010.0
2014-Sep-30 23:33N 54°36' E 012°31'1010.1
2014-Sep-30 22:33N 54°31' E 012°17'10 9.6
2014-Sep-30 21:33N 54°25' E 012°04'10 9.9
2014-Sep-30 20:34N 54°25' E 011°47'1110.8
2014-Sep-30 19:34N 54°29' E 011°30'1010.0
2014-Sep-30 18:33N 54°34' E 011°14'10 9.5
2014-Sep-30 17:33N 54°35' E 010°58'1010.5
2014-Sep-30 16:33N 54°34' E 010°40'1010.3
2014-Sep-30 15:33N 54°30' E 010°23'10 9.8
2014-Sep-30 14:33N 54°23' E 010°12'3 2.9
2014-Sep-30 13:33N 54°22' E 010°07'6 6.0
2014-Sep-30 12:33N 54°20' E 009°57'5 4.9
2014-Sep-30 11:33N 54°22' E 009°49'8 7.7
2014-Sep-30 10:33N 54°17' E 009°39'5 5.1
2014-Sep-30 09:33N 54°13' E 009°35'16 7.8
2014-Sep-30 07:32N 54°01' E 009°18'7 7.1
2014-Sep-30 06:33N 53°55' E 009°11'3 3.4
2014-Sep-30 05:33N 53°53' E 009°06'9 9.4
2014-Sep-30 04:34N 53°50' E 008°51'1010.5
2014-Sep-30 03:34N 53°57' E 008°37'1111.1
2014-Sep-30 02:34N 53°59' E 008°19'1111.1
2014-Sep-30 01:33N 53°58' E 008°00'5911.6
2014-Sep-29 20:26N 53°44' E 006°22'910.8
2014-Sep-29 19:34N 53°41' E 006°07'1010.3
2014-Sep-29 18:34N 53°38' E 005°51'10 9.7
2014-Sep-29 17:34N 53°35' E 005°35'9 9.4
2014-Sep-29 16:34N 53°32' E 005°20'9 9.2
2014-Sep-29 15:33N 53°29' E 005°06'9 9.2
2014-Sep-29 14:34N 53°25' E 004°51'9 9.1
2014-Sep-29 13:33N 53°20' E 004°40'30 9.7
2014-Sep-29 10:31N 52°54' E 004°16'10 9.9
2014-Sep-29 09:28N 52°45' E 004°08'1010.6
2014-Sep-29 08:33N 52°38' E 003°57'1111.2
2014-Sep-29 07:33N 52°30' E 003°43'1311.6
2014-Sep-29 06:27N 52°22' E 003°27'1011.2
2014-Sep-29 05:33N 52°18' E 003°12'1411.5
2014-Sep-29 04:18N 52°13' E 002°50'1011.8
2014-Sep-29 03:28N 52°06' E 002°39'1111.6
2014-Sep-29 02:33N 51°58' E 002°28'1110.8
2014-Sep-29 01:34N 51°50' E 002°16'10 9.9
2014-Sep-29 00:34N 51°42' E 002°06'9 8.7
2014-Sep-28 23:33N 51°36' E 001°56'9 8.6
2014-Sep-28 22:33N 51°31' E 001°45'9 8.5
2014-Sep-28 21:33N 51°28' E 001°32'10 9.5
2014-Sep-28 20:33N 51°29' E 001°17'1111.1
2014-Sep-28 19:34N 51°29' E 000°59'1212.1
2014-Sep-28 18:34N 51°30' E 000°40'1111.0
2014-Sep-28 17:34N 51°27' E 000°23'1 1.3
2014-Sep-28 16:33N 51°28' E 000°21'0 0.0
2014-Sep-28 15:33N 51°28' E 000°21'0 0.0
2014-Sep-28 14:33N 51°28' E 000°21'0 0.0
2014-Sep-28 13:34N 51°28' E 000°21'0 0.0
2014-Sep-28 12:33N 51°28' E 000°21'0 0.1
2014-Sep-28 11:34N 51°27' E 000°21'0 0.0
2014-Sep-28 10:33N 51°27' E 000°21'0 0.0
2014-Sep-28 09:33N 51°27' E 000°21'0 0.0
2014-Sep-28 08:33N 51°27' E 000°21'0 0.0
2014-Sep-28 07:33N 51°27' E 000°21'0 0.0
2014-Sep-28 06:33N 51°27' E 000°21'0 0.0
2014-Sep-28 05:34N 51°27' E 000°21'0 0.0
2014-Sep-28 04:34N 51°27' E 000°21'0 0.0
2014-Sep-28 03:33N 51°27' E 000°21'0 0.0
2014-Sep-28 02:34N 51°27' E 000°21'0 0.0
2014-Sep-28 01:33N 51°27' E 000°21'0 0.0
2014-Sep-28 00:34N 51°27' E 000°21'0 0.0
2014-Sep-27 23:33N 51°27' E 000°21'0 0.0
2014-Sep-27 22:33N 51°27' E 000°21'0 0.0
2014-Sep-27 21:34N 51°27' E 000°21'0 0.0
2014-Sep-27 20:34N 51°27' E 000°21'0 0.0
2014-Sep-27 19:33N 51°27' E 000°21'0 0.0
2014-Sep-27 18:33N 51°27' E 000°21'0 0.0
2014-Sep-27 17:33N 51°27' E 000°21'0 0.0
2014-Sep-27 16:33N 51°27' E 000°21'0 0.0
2014-Sep-27 15:33N 51°27' E 000°21'0 0.0
2014-Sep-27 14:34N 51°27' E 000°21'0 0.0
2014-Sep-27 13:33N 51°27' E 000°21'0 0.0
2014-Sep-27 12:34N 51°27' E 000°21'0 0.0
2014-Sep-27 11:34N 51°27' E 000°21'0 0.0
2014-Sep-27 10:34N 51°27' E 000°21'0 0.0
2014-Sep-27 09:34N 51°27' E 000°21'0 0.0
2014-Sep-27 08:33N 51°27' E 000°21'0 0.0
2014-Sep-27 07:34N 51°27' E 000°21'1 0.6
2014-Sep-27 06:34N 51°28' E 000°20'1 0.7
2014-Sep-27 05:34N 51°27' E 000°21'1 0.7
2014-Sep-27 04:34N 51°27' E 000°22'8 7.7
2014-Sep-27 03:33N 51°30' E 000°33'1010.2
2014-Sep-27 02:33N 51°30' E 000°49'1111.5
2014-Sep-27 01:34N 51°30' E 001°08'1312.6
2014-Sep-27 00:34N 51°28' E 001°28'6 6.3
2014-Sep-26 23:33N 51°31' E 001°36'8 7.8
2014-Sep-26 22:33N 51°37' E 001°44'10 9.7
2014-Sep-26 21:33N 51°47' E 001°44'1313.3
2014-Sep-26 20:34N 52°00' E 001°47'1413.6
2014-Sep-26 19:34N 52°13' E 001°53'1212.2
2014-Sep-26 18:34N 52°25' E 001°57'1110.9
2014-Sep-26 17:34N 52°36' E 002°02'1010.1
2014-Sep-26 16:33N 52°46' E 002°05'9 9.3
2014-Sep-26 15:33N 52°54' E 001°58'9 9.4
2014-Sep-26 14:34N 52°60' E 001°46'10 9.7
2014-Sep-26 13:33N 53°06' E 001°33'1010.1
2014-Sep-26 12:33N 53°12' E 001°21'3210.5
2014-Sep-26 09:33N 53°26' E 000°33'1111.3
2014-Sep-26 08:34N 53°31' E 000°16'1211.6
2014-Sep-26 07:33N 53°36' W 000°02'1010.4
2014-Sep-26 06:33N 53°43' W 000°15'4 3.9
2014-Sep-26 05:31N 53°44' W 000°21'0 0.0
2014-Sep-26 04:34N 53°44' W 000°21'0 0.0
2014-Sep-26 03:34N 53°44' W 000°21'0 0.0
2014-Sep-26 02:34N 53°44' W 000°21'0 0.0
2014-Sep-26 01:34N 53°44' W 000°21'0 0.0
2014-Sep-26 00:34N 53°44' W 000°21'0 0.0
2014-Sep-25 23:33N 53°44' W 000°21'0 0.0
2014-Sep-25 22:33N 53°44' W 000°21'0 0.0
2014-Sep-25 21:33N 53°44' W 000°21'0 0.0
2014-Sep-25 20:33N 53°44' W 000°21'0 0.0
2014-Sep-25 19:33N 53°44' W 000°21'0 0.0
2014-Sep-25 18:33N 53°44' W 000°21'0 0.0
2014-Sep-25 17:33N 53°44' W 000°21'0 0.0
2014-Sep-25 16:33N 53°44' W 000°21'0 0.0
2014-Sep-25 15:33N 53°44' W 000°21'0 0.0
2014-Sep-25 14:33N 53°44' W 000°21'0 0.0
2014-Sep-25 13:34N 53°44' W 000°21'0 0.0
2014-Sep-25 12:33N 53°44' W 000°21'0 0.0
2014-Sep-25 11:33N 53°44' W 000°21'0 0.0
2014-Sep-25 10:33N 53°44' W 000°21'0 0.0
2014-Sep-25 09:33N 53°44' W 000°21'0 0.0
2014-Sep-25 08:34N 53°44' W 000°21'0 0.0
2014-Sep-25 07:34N 53°44' W 000°21'0 0.0
2014-Sep-25 06:33N 53°44' W 000°21'0 0.0
2014-Sep-25 05:33N 53°44' W 000°21'0 0.0
2014-Sep-25 04:33N 53°44' W 000°21'0 0.0
2014-Sep-25 03:33N 53°44' W 000°21'0 0.0
2014-Sep-25 02:34N 53°44' W 000°21'0 0.0
2014-Sep-25 01:34N 53°44' W 000°21'0 0.0
2014-Sep-25 00:34N 53°44' W 000°21'0 0.0
2014-Sep-24 23:33N 53°44' W 000°21'0 0.0
2014-Sep-24 22:33N 53°44' W 000°21'0 0.0
2014-Sep-24 21:33N 53°44' W 000°21'0 0.0
2014-Sep-24 20:33N 53°44' W 000°21'0 0.0
2014-Sep-24 19:31N 53°44' W 000°21'0 0.0
2014-Sep-24 18:31N 53°44' W 000°21'0 0.5
2014-Sep-24 17:33N 53°44' W 000°20'6 6.4
2014-Sep-24 16:34N 53°40' W 000°12'1211.8
2014-Sep-24 15:34N 53°34' E 000°05'10 9.6
2014-Sep-24 14:34N 53°33' E 000°21'3 3.3
2014-Sep-24 13:33N 53°35' E 000°26'0 0.1
2014-Sep-24 12:32N 53°35' E 000°26'0 0.0
2014-Sep-24 11:21N 53°35' E 000°26'6 7.4
2014-Sep-24 10:33N 53°36' E 000°36'148 8.5
2014-Sep-23 17:04N 54°04' E 004°43'4 8.3
2014-Sep-23 16:33N 54°04' E 004°50'8 8.0
2014-Sep-23 15:33N 54°05' E 005°03'8 8.1
2014-Sep-23 14:33N 54°06' E 005°17'8 8.5
2014-Sep-23 13:33N 54°08' E 005°31'8 8.4
2014-Sep-23 12:33N 54°09' E 005°45'9 8.9
2014-Sep-23 11:31N 54°10' E 006°01'35 8.7
2014-Sep-23 07:30N 54°12' E 007°01'8 8.3
2014-Sep-23 06:34N 54°12' E 007°14'8 8.3
2014-Sep-23 05:33N 54°12' E 007°28'8 8.0
2014-Sep-23 04:34N 54°09' E 007°41'8 8.3
2014-Sep-23 03:34N 54°05' E 007°53'8 8.2
2014-Sep-23 02:33N 54°01' E 008°06'10 9.9
2014-Sep-23 01:34N 53°60' E 008°22'1110.8
2014-Sep-23 00:34N 53°56' E 008°40'8 8.1
2014-Sep-22 23:33N 53°50' E 008°50'8 7.7
2014-Sep-22 22:33N 53°52' E 009°03'4 4.2
2014-Sep-22 21:33N 53°54' E 009°09'5 4.8
2014-Sep-22 20:30N 53°57' E 009°15'66 6.0
2014-Sep-22 09:22N 54°35' E 010°48'7 8.3
2014-Sep-22 08:33N 54°36' E 010°60'8 7.6
2014-Sep-22 07:34N 54°35' E 011°13'8 7.6
2014-Sep-22 06:34N 54°32' E 011°25'7 7.4
2014-Sep-22 05:34N 54°29' E 011°36'8 8.1
2014-Sep-22 04:34N 54°27' E 011°49'9 8.9
2014-Sep-22 03:34N 54°27' E 012°05'8 8.4
2014-Sep-22 02:33N 54°33' E 012°13'9 9.4
2014-Sep-22 01:33N 54°40' E 012°24'10 9.6
2014-Sep-22 00:33N 54°46' E 012°38'9 9.1
2014-Sep-21 23:33N 54°49' E 012°52'9 9.0
2014-Sep-21 22:33N 54°52' E 013°07'11 9.1
2014-Sep-21 21:22N 54°56' E 013°25'7 9.2
2014-Sep-21 20:33N 54°59' E 013°37'13 9.4
2014-Sep-21 19:09N 55°03' E 013°59'6 9.7
2014-Sep-21 18:30N 55°07' E 014°08'10 9.8
2014-Sep-21 17:30N 55°14' E 014°19'9 9.8
2014-Sep-21 16:33N 55°22' E 014°29'1010.0
2014-Sep-21 15:32N 55°28' E 014°42'1010.1
2014-Sep-21 14:33N 55°33' E 014°57'1310.0
2014-Sep-21 13:14N 55°40' E 015°17'1710.1
2014-Sep-21 11:33N 55°49' E 015°44'  

Dump ship's entire track history